sensor_id;sensor_type;location;lat;lon;timestamp;temperature;humidity
9824;DHT22;4951;50.778;7.196;2024-01-30T00:01:03;6.30;99.90
9824;DHT22;4951;50.778;7.196;2024-01-30T00:03:30;6.30;99.90
9824;DHT22;4951;50.778;7.196;2024-01-30T00:05:59;6.30;99.90
9824;DHT22;4951;50.778;7.196;2024-01-30T00:08:29;6.30;99.90
9824;DHT22;4951;50.778;7.196;2024-01-30T00:10:57;6.30;99.90
9824;DHT22;4951;50.778;7.196;2024-01-30T00:13:24;6.20;99.90
9824;DHT22;4951;50.778;7.196;2024-01-30T00:15:52;6.20;99.90
9824;DHT22;4951;50.778;7.196;2024-01-30T00:18:23;6.20;99.90
9824;DHT22;4951;50.778;7.196;2024-01-30T00:20:50;6.10;99.90
9824;DHT22;4951;50.778;7.196;2024-01-30T00:23:18;6.20;1.00
9824;DHT22;4951;50.778;7.196;2024-01-30T00:25:46;6.20;1.00
9824;DHT22;4951;50.778;7.196;2024-01-30T00:28:14;6.20;1.00
9824;DHT22;4951;50.778;7.196;2024-01-30T00:30:43;6.20;1.00
9824;DHT22;4951;50.778;7.196;2024-01-30T00:33:11;6.10;1.00
9824;DHT22;4951;50.778;7.196;2024-01-30T00:35:43;6.20;1.00
9824;DHT22;4951;50.778;7.196;2024-01-30T00:38:10;6.20;1.00
9824;DHT22;4951;50.778;7.196;2024-01-30T00:40:42;6.10;1.00
9824;DHT22;4951;50.778;7.196;2024-01-30T00:43:11;6.10;1.00
9824;DHT22;4951;50.778;7.196;2024-01-30T00:45:39;6.10;1.00
9824;DHT22;4951;50.778;7.196;2024-01-30T00:48:07;6.10;1.00
9824;DHT22;4951;50.778;7.196;2024-01-30T00:50:37;6.10;1.00
9824;DHT22;4951;50.778;7.196;2024-01-30T00:53:12;6.10;1.00
9824;DHT22;4951;50.778;7.196;2024-01-30T00:55:42;6.10;1.00
9824;DHT22;4951;50.778;7.196;2024-01-30T00:58:12;6.10;1.00
9824;DHT22;4951;50.778;7.196;2024-01-30T01:00:41;6.10;1.00
9824;DHT22;4951;50.778;7.196;2024-01-30T01:03:10;6.10;1.00
9824;DHT22;4951;50.778;7.196;2024-01-30T01:05:39;6.10;1.00
9824;DHT22;4951;50.778;7.196;2024-01-30T01:08:07;6.00;1.00
9824;DHT22;4951;50.778;7.196;2024-01-30T01:10:36;6.00;1.00
9824;DHT22;4951;50.778;7.196;2024-01-30T01:13:09;6.00;1.00
9824;DHT22;4951;50.778;7.196;2024-01-30T01:15:39;6.00;1.00
9824;DHT22;4951;50.778;7.196;2024-01-30T01:18:07;6.00;1.00
9824;DHT22;4951;50.778;7.196;2024-01-30T01:20:35;6.00;1.00
9824;DHT22;4951;50.778;7.196;2024-01-30T01:23:05;6.00;1.00
9824;DHT22;4951;50.778;7.196;2024-01-30T01:25:37;6.00;1.00
9824;DHT22;4951;50.778;7.196;2024-01-30T01:28:06;6.00;1.00
9824;DHT22;4951;50.778;7.196;2024-01-30T01:30:34;6.00;1.00
9824;DHT22;4951;50.778;7.196;2024-01-30T01:33:07;5.90;1.00
9824;DHT22;4951;50.778;7.196;2024-01-30T01:35:35;5.90;1.00
9824;DHT22;4951;50.778;7.196;2024-01-30T01:38:04;5.90;1.00
9824;DHT22;4951;50.778;7.196;2024-01-30T01:40:32;6.00;1.00
9824;DHT22;4951;50.778;7.196;2024-01-30T01:43:05;6.00;1.00
9824;DHT22;4951;50.778;7.196;2024-01-30T01:45:34;5.90;1.00
9824;DHT22;4951;50.778;7.196;2024-01-30T01:48:02;5.90;1.00
9824;DHT22;4951;50.778;7.196;2024-01-30T01:50:31;5.90;1.00
9824;DHT22;4951;50.778;7.196;2024-01-30T01:52:59;5.90;1.00
9824;DHT22;4951;50.778;7.196;2024-01-30T01:55:33;5.90;1.00
9824;DHT22;4951;50.778;7.196;2024-01-30T01:58:06;5.90;1.00
9824;DHT22;4951;50.778;7.196;2024-01-30T02:00:40;6.00;1.00
9824;DHT22;4951;50.778;7.196;2024-01-30T02:03:11;6.00;1.00
9824;DHT22;4951;50.778;7.196;2024-01-30T02:05:40;6.00;1.00
9824;DHT22;4951;50.778;7.196;2024-01-30T02:08:09;6.00;1.00
9824;DHT22;4951;50.778;7.196;2024-01-30T02:10:38;6.00;1.00
9824;DHT22;4951;50.778;7.196;2024-01-30T02:17:27;6.00;1.00
9824;DHT22;4951;50.778;7.196;2024-01-30T02:23:01;5.90;1.00
9824;DHT22;4951;50.778;7.196;2024-01-30T02:25:53;6.00;1.00
9824;DHT22;4951;50.778;7.196;2024-01-30T02:28:53;5.90;1.00
9824;DHT22;4951;50.778;7.196;2024-01-30T02:32:13;5.90;1.00
9824;DHT22;4951;50.778;7.196;2024-01-30T02:35:16;5.90;1.00
9824;DHT22;4951;50.778;7.196;2024-01-30T02:38:52;5.90;1.00
9824;DHT22;4951;50.778;7.196;2024-01-30T02:41:42;5.90;1.00
9824;DHT22;4951;50.778;7.196;2024-01-30T02:44:35;5.90;1.00
9824;DHT22;4951;50.778;7.196;2024-01-30T02:47:28;5.90;1.00
9824;DHT22;4951;50.778;7.196;2024-01-30T02:50:10;5.90;1.00
9824;DHT22;4951;50.778;7.196;2024-01-30T02:52:46;5.90;1.00
9824;DHT22;4951;50.778;7.196;2024-01-30T02:55:30;5.90;1.00
9824;DHT22;4951;50.778;7.196;2024-01-30T02:57:59;5.90;1.00
9824;DHT22;4951;50.778;7.196;2024-01-30T03:00:36;5.90;1.00
9824;DHT22;4951;50.778;7.196;2024-01-30T03:03:07;5.90;1.00
9824;DHT22;4951;50.778;7.196;2024-01-30T03:05:40;5.80;1.00
9824;DHT22;4951;50.778;7.196;2024-01-30T03:08:09;5.80;1.00
9824;DHT22;4951;50.778;7.196;2024-01-30T03:10:43;5.80;1.00
9824;DHT22;4951;50.778;7.196;2024-01-30T03:13:12;5.90;1.00
9824;DHT22;4951;50.778;7.196;2024-01-30T03:15:41;5.90;1.00
9824;DHT22;4951;50.778;7.196;2024-01-30T03:18:14;5.90;1.00
9824;DHT22;4951;50.778;7.196;2024-01-30T03:20:45;5.90;1.00
9824;DHT22;4951;50.778;7.196;2024-01-30T03:23:15;5.90;1.00
9824;DHT22;4951;50.778;7.196;2024-01-30T03:25:49;5.90;1.00
9824;DHT22;4951;50.778;7.196;2024-01-30T03:28:21;5.90;1.00
9824;DHT22;4951;50.778;7.196;2024-01-30T03:30:50;5.90;1.00
9824;DHT22;4951;50.778;7.196;2024-01-30T03:33:19;5.90;1.00
9824;DHT22;4951;50.778;7.196;2024-01-30T03:35:48;5.90;1.00
9824;DHT22;4951;50.778;7.196;2024-01-30T03:38:18;5.90;1.00
9824;DHT22;4951;50.778;7.196;2024-01-30T03:40:49;5.90;1.00
9824;DHT22;4951;50.778;7.196;2024-01-30T03:43:17;5.80;1.00
9824;DHT22;4951;50.778;7.196;2024-01-30T03:45:48;5.80;1.00
9824;DHT22;4951;50.778;7.196;2024-01-30T03:48:19;5.80;1.00
9824;DHT22;4951;50.778;7.196;2024-01-30T03:50:58;5.80;1.00
9824;DHT22;4951;50.778;7.196;2024-01-30T03:53:29;5.80;1.00
9824;DHT22;4951;50.778;7.196;2024-01-30T03:56:17;5.70;1.00
9824;DHT22;4951;50.778;7.196;2024-01-30T03:59:08;5.70;1.00
9824;DHT22;4951;50.778;7.196;2024-01-30T04:01:37;5.60;1.00
9824;DHT22;4951;50.778;7.196;2024-01-30T04:04:12;5.50;1.00
9824;DHT22;4951;50.778;7.196;2024-01-30T04:06:50;5.40;1.00
9824;DHT22;4951;50.778;7.196;2024-01-30T04:09:21;5.30;1.00
9824;DHT22;4951;50.778;7.196;2024-01-30T04:12:00;5.30;1.00
9824;DHT22;4951;50.778;7.196;2024-01-30T04:14:29;5.30;1.00
9824;DHT22;4951;50.778;7.196;2024-01-30T04:17:06;5.30;1.00
9824;DHT22;4951;50.778;7.196;2024-01-30T04:19:37;5.30;1.00
9824;DHT22;4951;50.778;7.196;2024-01-30T04:22:10;5.40;1.00
9824;DHT22;4951;50.778;7.196;2024-01-30T04:24:48;5.40;1.00
9824;DHT22;4951;50.778;7.196;2024-01-30T04:27:23;5.40;1.00
9824;DHT22;4951;50.778;7.196;2024-01-30T04:30:00;5.50;1.00
9824;DHT22;4951;50.778;7.196;2024-01-30T04:32:44;5.50;1.00
9824;DHT22;4951;50.778;7.196;2024-01-30T04:35:17;5.50;1.00
9824;DHT22;4951;50.778;7.196;2024-01-30T04:37:48;5.50;1.00
9824;DHT22;4951;50.778;7.196;2024-01-30T04:40:22;5.40;1.00
9824;DHT22;4951;50.778;7.196;2024-01-30T04:42:54;5.40;1.00
9824;DHT22;4951;50.778;7.196;2024-01-30T04:45:26;5.40;1.00
9824;DHT22;4951;50.778;7.196;2024-01-30T04:47:57;5.30;1.00
9824;DHT22;4951;50.778;7.196;2024-01-30T04:50:34;5.30;1.00
9824;DHT22;4951;50.778;7.196;2024-01-30T04:53:06;5.20;1.00
9824;DHT22;4951;50.778;7.196;2024-01-30T04:55:41;5.20;1.00
9824;DHT22;4951;50.778;7.196;2024-01-30T04:58:18;5.10;1.00
9824;DHT22;4951;50.778;7.196;2024-01-30T05:00:59;5.10;1.00
9824;DHT22;4951;50.778;7.196;2024-01-30T05:03:40;5.10;1.00
9824;DHT22;4951;50.778;7.196;2024-01-30T05:06:10;5.10;1.00
9824;DHT22;4951;50.778;7.196;2024-01-30T05:08:39;5.00;1.00
9824;DHT22;4951;50.778;7.196;2024-01-30T05:11:11;5.00;1.00
9824;DHT22;4951;50.778;7.196;2024-01-30T05:13:50;4.90;1.00
9824;DHT22;4951;50.778;7.196;2024-01-30T05:16:29;4.90;1.00
9824;DHT22;4951;50.778;7.196;2024-01-30T05:19:00;4.90;1.00
9824;DHT22;4951;50.778;7.196;2024-01-30T05:21:33;4.90;1.00
9824;DHT22;4951;50.778;7.196;2024-01-30T05:24:16;4.90;1.00
9824;DHT22;4951;50.778;7.196;2024-01-30T05:26:48;4.80;1.00
9824;DHT22;4951;50.778;7.196;2024-01-30T05:32:54;4.60;1.00
9824;DHT22;4951;50.778;7.196;2024-01-30T05:35:39;4.60;1.00
9824;DHT22;4951;50.778;7.196;2024-01-30T05:38:22;4.50;1.00
9824;DHT22;4951;50.778;7.196;2024-01-30T05:40:51;4.50;1.00
9824;DHT22;4951;50.778;7.196;2024-01-30T05:43:25;4.50;1.00
9824;DHT22;4951;50.778;7.196;2024-01-30T05:46:05;4.50;1.00
9824;DHT22;4951;50.778;7.196;2024-01-30T05:48:45;4.50;1.00
9824;DHT22;4951;50.778;7.196;2024-01-30T05:51:22;4.50;1.00
9824;DHT22;4951;50.778;7.196;2024-01-30T05:53:54;4.50;1.00
9824;DHT22;4951;50.778;7.196;2024-01-30T05:56:23;4.50;1.00
9824;DHT22;4951;50.778;7.196;2024-01-30T05:58:52;4.50;1.00
9824;DHT22;4951;50.778;7.196;2024-01-30T06:01:21;4.50;1.00
9824;DHT22;4951;50.778;7.196;2024-01-30T06:03:52;4.60;1.00
9824;DHT22;4951;50.778;7.196;2024-01-30T06:06:22;4.70;1.00
9824;DHT22;4951;50.778;7.196;2024-01-30T06:08:53;4.70;1.00
9824;DHT22;4951;50.778;7.196;2024-01-30T06:11:23;4.70;1.00
9824;DHT22;4951;50.778;7.196;2024-01-30T06:13:58;4.80;1.00
9824;DHT22;4951;50.778;7.196;2024-01-30T06:16:29;4.80;1.00
9824;DHT22;4951;50.778;7.196;2024-01-30T06:19:22;4.80;1.00
9824;DHT22;4951;50.778;7.196;2024-01-30T06:21:57;4.80;1.00
9824;DHT22;4951;50.778;7.196;2024-01-30T06:24:33;4.80;1.00
9824;DHT22;4951;50.778;7.196;2024-01-30T06:27:01;4.80;1.00
9824;DHT22;4951;50.778;7.196;2024-01-30T06:29:29;4.80;1.00
9824;DHT22;4951;50.778;7.196;2024-01-30T06:32:00;4.80;1.00
9824;DHT22;4951;50.778;7.196;2024-01-30T06:34:32;4.80;1.00
9824;DHT22;4951;50.778;7.196;2024-01-30T06:37:04;4.70;1.00
9824;DHT22;4951;50.778;7.196;2024-01-30T06:39:37;4.70;1.00
9824;DHT22;4951;50.778;7.196;2024-01-30T06:42:05;4.80;1.00
9824;DHT22;4951;50.778;7.196;2024-01-30T06:44:34;4.80;1.00
9824;DHT22;4951;50.778;7.196;2024-01-30T06:47:06;4.80;1.00
9824;DHT22;4951;50.778;7.196;2024-01-30T06:49:42;4.80;1.00
9824;DHT22;4951;50.778;7.196;2024-01-30T06:52:17;4.80;1.00
9824;DHT22;4951;50.778;7.196;2024-01-30T06:54:52;4.80;1.00
9824;DHT22;4951;50.778;7.196;2024-01-30T06:57:21;4.80;1.00
9824;DHT22;4951;50.778;7.196;2024-01-30T06:59:50;4.80;1.00
9824;DHT22;4951;50.778;7.196;2024-01-30T07:02:23;4.80;1.00
9824;DHT22;4951;50.778;7.196;2024-01-30T07:04:55;4.80;1.00
9824;DHT22;4951;50.778;7.196;2024-01-30T07:07:28;4.90;1.00
9824;DHT22;4951;50.778;7.196;2024-01-30T07:10:06;4.90;1.00
9824;DHT22;4951;50.778;7.196;2024-01-30T07:12:36;4.90;1.00
9824;DHT22;4951;50.778;7.196;2024-01-30T07:15:06;4.90;1.00
9824;DHT22;4951;50.778;7.196;2024-01-30T07:17:37;4.90;1.00
9824;DHT22;4951;50.778;7.196;2024-01-30T07:20:09;4.90;1.00
9824;DHT22;4951;50.778;7.196;2024-01-30T07:22:41;5.00;1.00
9824;DHT22;4951;50.778;7.196;2024-01-30T07:25:09;5.00;1.00
9824;DHT22;4951;50.778;7.196;2024-01-30T07:27:39;5.00;1.00
9824;DHT22;4951;50.778;7.196;2024-01-30T07:30:09;5.00;1.00
9824;DHT22;4951;50.778;7.196;2024-01-30T07:32:38;5.00;1.00
9824;DHT22;4951;50.778;7.196;2024-01-30T07:35:08;5.10;1.00
9824;DHT22;4951;50.778;7.196;2024-01-30T07:37:38;5.10;1.00
9824;DHT22;4951;50.778;7.196;2024-01-30T07:40:14;5.20;1.00
9824;DHT22;4951;50.778;7.196;2024-01-30T07:42:44;5.20;1.00
9824;DHT22;4951;50.778;7.196;2024-01-30T07:45:17;5.30;1.00
9824;DHT22;4951;50.778;7.196;2024-01-30T07:47:49;5.40;1.00
9824;DHT22;4951;50.778;7.196;2024-01-30T07:50:22;5.40;1.00
9824;DHT22;4951;50.778;7.196;2024-01-30T07:52:50;5.50;1.00
9824;DHT22;4951;50.778;7.196;2024-01-30T07:55:21;5.60;1.00
9824;DHT22;4951;50.778;7.196;2024-01-30T07:57:52;5.70;1.00
9824;DHT22;4951;50.778;7.196;2024-01-30T08:00:22;5.70;1.00
9824;DHT22;4951;50.778;7.196;2024-01-30T08:02:53;5.80;1.00
9824;DHT22;4951;50.778;7.196;2024-01-30T08:05:25;5.90;1.00
9824;DHT22;4951;50.778;7.196;2024-01-30T08:07:53;5.90;1.00
9824;DHT22;4951;50.778;7.196;2024-01-30T08:10:30;6.00;1.00
9824;DHT22;4951;50.778;7.196;2024-01-30T08:12:58;6.10;1.00
9824;DHT22;4951;50.778;7.196;2024-01-30T08:15:27;6.10;1.00
9824;DHT22;4951;50.778;7.196;2024-01-30T08:17:58;6.20;1.00
9824;DHT22;4951;50.778;7.196;2024-01-30T08:20:27;6.30;1.00
9824;DHT22;4951;50.778;7.196;2024-01-30T08:22:55;6.30;1.00
9824;DHT22;4951;50.778;7.196;2024-01-30T08:25:25;6.40;1.00
9824;DHT22;4951;50.778;7.196;2024-01-30T08:27:53;6.50;1.00
9824;DHT22;4951;50.778;7.196;2024-01-30T08:30:21;6.50;1.00
9824;DHT22;4951;50.778;7.196;2024-01-30T08:32:50;6.50;1.00
9824;DHT22;4951;50.778;7.196;2024-01-30T08:35:18;6.50;1.00
9824;DHT22;4951;50.778;7.196;2024-01-30T08:37:50;6.60;1.00
9824;DHT22;4951;50.778;7.196;2024-01-30T08:40:18;6.60;1.00
9824;DHT22;4951;50.778;7.196;2024-01-30T08:42:46;6.60;1.00
9824;DHT22;4951;50.778;7.196;2024-01-30T08:45:15;6.70;1.00
9824;DHT22;4951;50.778;7.196;2024-01-30T08:47:44;6.70;1.00
9824;DHT22;4951;50.778;7.196;2024-01-30T08:50:12;6.80;1.00
9824;DHT22;4951;50.778;7.196;2024-01-30T08:52:58;6.70;1.00
9824;DHT22;4951;50.778;7.196;2024-01-30T08:55:29;6.80;1.00
9824;DHT22;4951;50.778;7.196;2024-01-30T08:57:59;6.80;1.00
9824;DHT22;4951;50.778;7.196;2024-01-30T09:00:30;6.80;1.00
9824;DHT22;4951;50.778;7.196;2024-01-30T09:02:59;6.90;1.00
9824;DHT22;4951;50.778;7.196;2024-01-30T09:05:28;6.90;1.00
9824;DHT22;4951;50.778;7.196;2024-01-30T09:08:00;6.90;1.00
9824;DHT22;4951;50.778;7.196;2024-01-30T09:10:30;7.00;1.00
9824;DHT22;4951;50.778;7.196;2024-01-30T09:13:01;7.00;1.00
9824;DHT22;4951;50.778;7.196;2024-01-30T09:15:31;7.10;1.00
9824;DHT22;4951;50.778;7.196;2024-01-30T09:17:59;7.20;1.00
9824;DHT22;4951;50.778;7.196;2024-01-30T09:20:34;7.20;1.00
9824;DHT22;4951;50.778;7.196;2024-01-30T09:23:10;7.30;1.00
9824;DHT22;4951;50.778;7.196;2024-01-30T09:25:39;7.40;1.00
9824;DHT22;4951;50.778;7.196;2024-01-30T09:28:07;7.40;1.00
9824;DHT22;4951;50.778;7.196;2024-01-30T09:30:37;7.40;1.00
9824;DHT22;4951;50.778;7.196;2024-01-30T09:33:05;7.50;1.00
9824;DHT22;4951;50.778;7.196;2024-01-30T09:35:35;7.50;1.00
9824;DHT22;4951;50.778;7.196;2024-01-30T09:38:10;7.60;1.00
9824;DHT22;4951;50.778;7.196;2024-01-30T09:40:39;7.70;1.00
9824;DHT22;4951;50.778;7.196;2024-01-30T09:43:16;7.80;1.00
9824;DHT22;4951;50.778;7.196;2024-01-30T09:45:45;7.80;1.00
9824;DHT22;4951;50.778;7.196;2024-01-30T09:48:19;7.90;1.00
9824;DHT22;4951;50.778;7.196;2024-01-30T09:50:48;8.10;1.00
9824;DHT22;4951;50.778;7.196;2024-01-30T09:53:19;8.30;1.00
9824;DHT22;4951;50.778;7.196;2024-01-30T09:55:50;8.50;1.00
9824;DHT22;4951;50.778;7.196;2024-01-30T09:58:20;8.60;1.00
9824;DHT22;4951;50.778;7.196;2024-01-30T10:00:49;8.80;1.00
9824;DHT22;4951;50.778;7.196;2024-01-30T10:03:20;9.00;1.00
9824;DHT22;4951;50.778;7.196;2024-01-30T10:05:51;9.10;1.00
9824;DHT22;4951;50.778;7.196;2024-01-30T10:08:22;9.30;1.00
9824;DHT22;4951;50.778;7.196;2024-01-30T10:10:53;9.40;1.00
9824;DHT22;4951;50.778;7.196;2024-01-30T10:13:23;9.50;1.00
9824;DHT22;4951;50.778;7.196;2024-01-30T10:15:53;9.60;1.00
9824;DHT22;4951;50.778;7.196;2024-01-30T10:18:23;9.70;1.00
9824;DHT22;4951;50.778;7.196;2024-01-30T10:20:52;9.80;1.00
9824;DHT22;4951;50.778;7.196;2024-01-30T10:23:24;10.00;1.00
9824;DHT22;4951;50.778;7.196;2024-01-30T10:25:55;10.20;1.00
9824;DHT22;4951;50.778;7.196;2024-01-30T10:28:27;10.30;1.00
9824;DHT22;4951;50.778;7.196;2024-01-30T10:31:01;10.40;1.00
9824;DHT22;4951;50.778;7.196;2024-01-30T10:33:30;10.40;99.90
9824;DHT22;4951;50.778;7.196;2024-01-30T10:36:01;10.50;99.90
9824;DHT22;4951;50.778;7.196;2024-01-30T10:38:33;10.50;99.90
9824;DHT22;4951;50.778;7.196;2024-01-30T10:41:06;10.50;99.90
9824;DHT22;4951;50.778;7.196;2024-01-30T10:43:36;10.50;99.90
9824;DHT22;4951;50.778;7.196;2024-01-30T10:46:15;10.60;99.90
9824;DHT22;4951;50.778;7.196;2024-01-30T10:48:55;10.60;99.90
9824;DHT22;4951;50.778;7.196;2024-01-30T10:51:28;10.70;99.90
9824;DHT22;4951;50.778;7.196;2024-01-30T10:54:00;10.70;99.90
9824;DHT22;4951;50.778;7.196;2024-01-30T10:56:38;10.80;99.90
9824;DHT22;4951;50.778;7.196;2024-01-30T10:59:23;10.90;80.70
9824;DHT22;4951;50.778;7.196;2024-01-30T11:01:52;10.90;1.00
9824;DHT22;4951;50.778;7.196;2024-01-30T11:04:36;10.90;1.00
9824;DHT22;4951;50.778;7.196;2024-01-30T11:07:17;11.00;1.00
9824;DHT22;4951;50.778;7.196;2024-01-30T11:09:53;11.00;1.00
9824;DHT22;4951;50.778;7.196;2024-01-30T11:12:23;11.10;1.00
9824;DHT22;4951;50.778;7.196;2024-01-30T11:15:05;11.10;1.00
9824;DHT22;4951;50.778;7.196;2024-01-30T11:17:43;11.20;1.00
9824;DHT22;4951;50.778;7.196;2024-01-30T11:20:19;11.20;1.00
9824;DHT22;4951;50.778;7.196;2024-01-30T11:22:52;11.20;1.00
9824;DHT22;4951;50.778;7.196;2024-01-30T11:25:26;11.20;99.90
9824;DHT22;4951;50.778;7.196;2024-01-30T11:27:56;11.30;99.90
9824;DHT22;4951;50.778;7.196;2024-01-30T11:30:26;11.30;99.90
9824;DHT22;4951;50.778;7.196;2024-01-30T11:33:06;11.40;99.90
9824;DHT22;4951;50.778;7.196;2024-01-30T11:35:39;11.40;1.00
9824;DHT22;4951;50.778;7.196;2024-01-30T11:38:11;11.40;1.00
9824;DHT22;4951;50.778;7.196;2024-01-30T11:40:45;11.50;1.00
9824;DHT22;4951;50.778;7.196;2024-01-30T11:43:15;11.50;1.00
9824;DHT22;4951;50.778;7.196;2024-01-30T11:45:46;11.50;1.00
9824;DHT22;4951;50.778;7.196;2024-01-30T11:48:18;11.50;1.00
9824;DHT22;4951;50.778;7.196;2024-01-30T11:50:47;11.60;1.00
9824;DHT22;4951;50.778;7.196;2024-01-30T11:53:17;11.60;1.00
9824;DHT22;4951;50.778;7.196;2024-01-30T11:55:51;11.60;1.00
9824;DHT22;4951;50.778;7.196;2024-01-30T11:58:19;11.70;1.00
9824;DHT22;4951;50.778;7.196;2024-01-30T12:00:54;11.70;1.00
9824;DHT22;4951;50.778;7.196;2024-01-30T12:03:26;11.80;99.90
9824;DHT22;4951;50.778;7.196;2024-01-30T12:05:57;11.90;99.90
9824;DHT22;4951;50.778;7.196;2024-01-30T12:08:27;11.90;99.90
9824;DHT22;4951;50.778;7.196;2024-01-30T12:11:00;11.90;99.90
9824;DHT22;4951;50.778;7.196;2024-01-30T12:13:32;12.00;99.90
9824;DHT22;4951;50.778;7.196;2024-01-30T12:16:03;12.00;99.90
9824;DHT22;4951;50.778;7.196;2024-01-30T12:18:32;12.10;1.00
9824;DHT22;4951;50.778;7.196;2024-01-30T12:21:02;12.20;1.00
9824;DHT22;4951;50.778;7.196;2024-01-30T12:23:36;12.30;99.90
9824;DHT22;4951;50.778;7.196;2024-01-30T12:26:06;12.40;99.90
9824;DHT22;4951;50.778;7.196;2024-01-30T12:28:48;12.50;99.90
9824;DHT22;4951;50.778;7.196;2024-01-30T12:31:24;12.60;1.00
9824;DHT22;4951;50.778;7.196;2024-01-30T12:33:53;12.60;1.00
9824;DHT22;4951;50.778;7.196;2024-01-30T12:36:21;12.80;99.90
9824;DHT22;4951;50.778;7.196;2024-01-30T12:38:50;12.90;99.90
9824;DHT22;4951;50.778;7.196;2024-01-30T12:41:21;12.90;1.00
9824;DHT22;4951;50.778;7.196;2024-01-30T12:43:57;13.00;99.90
9824;DHT22;4951;50.778;7.196;2024-01-30T12:46:28;12.90;1.00
9824;DHT22;4951;50.778;7.196;2024-01-30T12:49:00;12.90;1.00
9824;DHT22;4951;50.778;7.196;2024-01-30T12:51:46;12.80;99.90
9824;DHT22;4951;50.778;7.196;2024-01-30T12:54:15;12.80;1.00
9824;DHT22;4951;50.778;7.196;2024-01-30T12:56:51;12.70;1.00
9824;DHT22;4951;50.778;7.196;2024-01-30T12:59:23;12.70;99.90
9824;DHT22;4951;50.778;7.196;2024-01-30T13:01:52;12.60;99.90
9824;DHT22;4951;50.778;7.196;2024-01-30T13:04:29;12.60;99.90
9824;DHT22;4951;50.778;7.196;2024-01-30T13:07:00;12.60;99.90
9824;DHT22;4951;50.778;7.196;2024-01-30T13:09:30;12.60;99.90
9824;DHT22;4951;50.778;7.196;2024-01-30T13:12:05;12.60;99.90
9824;DHT22;4951;50.778;7.196;2024-01-30T13:14:36;12.60;99.90
9824;DHT22;4951;50.778;7.196;2024-01-30T13:17:12;12.60;99.90
9824;DHT22;4951;50.778;7.196;2024-01-30T13:19:42;12.50;99.90
9824;DHT22;4951;50.778;7.196;2024-01-30T13:22:11;12.50;37.70
9824;DHT22;4951;50.778;7.196;2024-01-30T13:24:40;12.50;38.70
9824;DHT22;4951;50.778;7.196;2024-01-30T13:27:22;12.40;95.50
9824;DHT22;4951;50.778;7.196;2024-01-30T13:29:52;12.40;99.90
9824;DHT22;4951;50.778;7.196;2024-01-30T13:32:21;12.30;99.90
9824;DHT22;4951;50.778;7.196;2024-01-30T13:34:51;12.40;99.90
9824;DHT22;4951;50.778;7.196;2024-01-30T13:37:21;12.40;1.00
9824;DHT22;4951;50.778;7.196;2024-01-30T13:39:53;12.40;1.00
9824;DHT22;4951;50.778;7.196;2024-01-30T13:42:25;12.30;1.00
9824;DHT22;4951;50.778;7.196;2024-01-30T13:44:54;12.40;1.00
9824;DHT22;4951;50.778;7.196;2024-01-30T13:47:28;12.40;1.00
9824;DHT22;4951;50.778;7.196;2024-01-30T13:50:00;12.30;1.00
9824;DHT22;4951;50.778;7.196;2024-01-30T13:52:31;12.40;6.10
9824;DHT22;4951;50.778;7.196;2024-01-30T13:55:01;12.40;1.00
9824;DHT22;4951;50.778;7.196;2024-01-30T13:57:38;12.40;1.00
9824;DHT22;4951;50.778;7.196;2024-01-30T14:00:08;12.40;1.00
9824;DHT22;4951;50.778;7.196;2024-01-30T14:02:40;12.40;1.00
9824;DHT22;4951;50.778;7.196;2024-01-30T14:05:14;12.40;1.00
9824;DHT22;4951;50.778;7.196;2024-01-30T14:07:44;12.40;1.00
9824;DHT22;4951;50.778;7.196;2024-01-30T14:10:12;12.30;1.00
9824;DHT22;4951;50.778;7.196;2024-01-30T14:12:44;12.30;1.00
9824;DHT22;4951;50.778;7.196;2024-01-30T14:15:13;12.40;1.00
9824;DHT22;4951;50.778;7.196;2024-01-30T14:17:43;12.30;1.00
9824;DHT22;4951;50.778;7.196;2024-01-30T14:20:15;12.30;1.00
9824;DHT22;4951;50.778;7.196;2024-01-30T14:22:45;12.30;1.00
9824;DHT22;4951;50.778;7.196;2024-01-30T14:25:13;12.40;99.90
9824;DHT22;4951;50.778;7.196;2024-01-30T14:27:45;12.40;99.90
9824;DHT22;4951;50.778;7.196;2024-01-30T14:30:17;12.40;99.90
9824;DHT22;4951;50.778;7.196;2024-01-30T14:32:45;12.40;1.00
9824;DHT22;4951;50.778;7.196;2024-01-30T14:35:16;12.40;99.90
9824;DHT22;4951;50.778;7.196;2024-01-30T14:37:46;12.40;99.90
9824;DHT22;4951;50.778;7.196;2024-01-30T14:40:15;12.40;99.90
9824;DHT22;4951;50.778;7.196;2024-01-30T14:42:44;12.30;99.90
9824;DHT22;4951;50.778;7.196;2024-01-30T14:45:17;12.20;99.90
9824;DHT22;4951;50.778;7.196;2024-01-30T14:47:46;12.20;99.90
9824;DHT22;4951;50.778;7.196;2024-01-30T14:50:16;12.10;99.90
9824;DHT22;4951;50.778;7.196;2024-01-30T14:52:49;12.00;1.00
9824;DHT22;4951;50.778;7.196;2024-01-30T14:55:20;12.00;1.00
9824;DHT22;4951;50.778;7.196;2024-01-30T14:57:51;11.90;1.00
9824;DHT22;4951;50.778;7.196;2024-01-30T15:00:20;11.90;1.00
9824;DHT22;4951;50.778;7.196;2024-01-30T15:02:51;11.90;1.00
9824;DHT22;4951;50.778;7.196;2024-01-30T15:05:20;11.90;1.00
9824;DHT22;4951;50.778;7.196;2024-01-30T15:07:54;11.80;14.10
9824;DHT22;4951;50.778;7.196;2024-01-30T15:10:22;11.80;99.90
9824;DHT22;4951;50.778;7.196;2024-01-30T15:12:57;11.80;99.90
9824;DHT22;4951;50.778;7.196;2024-01-30T15:15:29;11.70;99.90
9824;DHT22;4951;50.778;7.196;2024-01-30T15:17:59;11.70;99.90
9824;DHT22;4951;50.778;7.196;2024-01-30T15:20:27;11.60;1.00
9824;DHT22;4951;50.778;7.196;2024-01-30T15:23:04;11.60;1.00
9824;DHT22;4951;50.778;7.196;2024-01-30T15:25:32;11.60;1.00
9824;DHT22;4951;50.778;7.196;2024-01-30T15:28:04;11.60;1.00
9824;DHT22;4951;50.778;7.196;2024-01-30T15:30:36;11.50;99.90
9824;DHT22;4951;50.778;7.196;2024-01-30T15:33:12;11.50;99.90
9824;DHT22;4951;50.778;7.196;2024-01-30T15:35:43;11.40;1.00
9824;DHT22;4951;50.778;7.196;2024-01-30T15:38:12;11.40;1.00
9824;DHT22;4951;50.778;7.196;2024-01-30T15:40:44;11.30;1.00
9824;DHT22;4951;50.778;7.196;2024-01-30T15:46:36;11.30;1.00
9824;DHT22;4951;50.778;7.196;2024-01-30T15:49:06;11.30;1.00
9824;DHT22;4951;50.778;7.196;2024-01-30T15:51:39;11.20;1.00
9824;DHT22;4951;50.778;7.196;2024-01-30T15:54:12;11.20;1.00
9824;DHT22;4951;50.778;7.196;2024-01-30T15:56:43;11.20;59.20
9824;DHT22;4951;50.778;7.196;2024-01-30T15:59:12;11.20;99.90
9824;DHT22;4951;50.778;7.196;2024-01-30T16:01:46;11.20;99.90
9824;DHT22;4951;50.778;7.196;2024-01-30T16:04:16;11.10;99.90
9824;DHT22;4951;50.778;7.196;2024-01-30T16:06:45;11.10;1.00
9824;DHT22;4951;50.778;7.196;2024-01-30T16:09:16;11.00;1.00
9824;DHT22;4951;50.778;7.196;2024-01-30T16:11:47;11.00;99.90
9824;DHT22;4951;50.778;7.196;2024-01-30T16:14:17;10.90;1.00
9824;DHT22;4951;50.778;7.196;2024-01-30T16:16:58;10.90;1.00
9824;DHT22;4951;50.778;7.196;2024-01-30T16:19:29;10.90;1.00
9824;DHT22;4951;50.778;7.196;2024-01-30T16:21:59;10.80;1.00
9824;DHT22;4951;50.778;7.196;2024-01-30T16:24:30;10.80;1.00
9824;DHT22;4951;50.778;7.196;2024-01-30T16:26:58;10.80;99.90
9824;DHT22;4951;50.778;7.196;2024-01-30T16:29:29;10.70;99.90
9824;DHT22;4951;50.778;7.196;2024-01-30T16:32:08;10.70;99.90
9824;DHT22;4951;50.778;7.196;2024-01-30T16:34:37;10.60;1.00
9824;DHT22;4951;50.778;7.196;2024-01-30T16:37:06;10.60;1.00
9824;DHT22;4951;50.778;7.196;2024-01-30T16:39:37;10.60;1.00
9824;DHT22;4951;50.778;7.196;2024-01-30T16:42:06;10.60;1.00
9824;DHT22;4951;50.778;7.196;2024-01-30T16:44:36;10.60;1.00
9824;DHT22;4951;50.778;7.196;2024-01-30T16:47:07;10.50;1.00
9824;DHT22;4951;50.778;7.196;2024-01-30T16:49:35;10.50;99.90
9824;DHT22;4951;50.778;7.196;2024-01-30T16:52:04;10.50;99.90
9824;DHT22;4951;50.778;7.196;2024-01-30T16:54:33;10.50;99.90
9824;DHT22;4951;50.778;7.196;2024-01-30T16:57:02;10.60;99.90
9824;DHT22;4951;50.778;7.196;2024-01-30T16:59:31;10.60;2.70
9824;DHT22;4951;50.778;7.196;2024-01-30T17:02:06;10.60;1.00
9824;DHT22;4951;50.778;7.196;2024-01-30T17:04:42;10.60;18.50
9824;DHT22;4951;50.778;7.196;2024-01-30T17:07:13;10.60;54.90
9824;DHT22;4951;50.778;7.196;2024-01-30T17:09:42;10.60;99.90
9824;DHT22;4951;50.778;7.196;2024-01-30T17:12:13;10.60;99.90